createdAt,value
2022-11-08T00:02:10.698Z,12.65
2022-11-08T00:04:41.903Z,11.38
2022-11-08T00:07:34.371Z,12.93
2022-11-08T00:10:31.202Z,11.93
2022-11-08T00:13:29.708Z,15.93
2022-11-08T00:16:06.130Z,13.02
2022-11-08T00:18:44.854Z,12.65
2022-11-08T00:21:33.788Z,12.00
2022-11-08T00:24:19.825Z,12.95
2022-11-08T00:27:10.364Z,11.48
2022-11-08T00:29:39.083Z,13.65
2022-11-08T00:32:14.122Z,12.63
2022-11-08T00:34:56.261Z,12.60
2022-11-08T00:37:47.307Z,11.52
2022-11-08T00:40:35.037Z,15.52
2022-11-08T00:43:08.436Z,11.93
2022-11-08T00:45:40.027Z,13.05
2022-11-08T00:48:16.192Z,12.93
2022-11-08T00:50:48.812Z,13.15
2022-11-08T00:53:33.123Z,10.73
2022-11-08T00:56:22.370Z,13.10
2022-11-08T00:58:53.097Z,10.68
2022-11-08T01:01:35.977Z,12.48
2022-11-08T01:04:12.136Z,12.20
2022-11-08T01:06:42.079Z,13.18
2022-11-08T01:09:11.644Z,11.32
2022-11-08T01:11:51.499Z,11.70
2022-11-08T01:14:32.384Z,11.80
2022-11-08T01:17:07.565Z,11.70
2022-11-08T01:19:45.652Z,11.88
2022-11-08T01:22:18.832Z,10.23
2022-11-08T01:24:47.583Z,12.63
2022-11-08T01:27:16.750Z,13.00
2022-11-08T01:29:56.507Z,11.50
2022-11-08T01:32:54.887Z,13.02
2022-11-08T01:35:30.457Z,14.43
2022-11-08T01:38:04.926Z,13.45
2022-11-08T01:40:48.784Z,10.50
2022-11-08T01:43:30.325Z,14.90
2022-11-08T01:46:19.804Z,12.07
2022-11-08T01:49:19.805Z,12.55
2022-11-08T01:52:10.009Z,13.88
2022-11-08T01:54:55.220Z,12.55
2022-11-08T01:57:36.044Z,11.38
2022-11-08T02:00:12.403Z,13.88
2022-11-08T02:02:43.879Z,13.50
2022-11-08T02:05:26.429Z,13.80
2022-11-08T02:08:22.137Z,13.27
2022-11-08T02:10:53.314Z,11.63
2022-11-08T02:13:33.841Z,12.25
2022-11-08T02:16:01.757Z,14.45
2022-11-08T02:18:32.332Z,11.80
2022-11-08T02:21:26.756Z,12.43
2022-11-08T02:23:59.081Z,13.43
2022-11-08T02:26:35.202Z,14.60
2022-11-08T02:29:30.270Z,14.13
2022-11-08T02:31:59.773Z,13.23
2022-11-08T02:34:46.800Z,13.35
2022-11-08T02:37:18.945Z,15.05
2022-11-08T02:39:47.961Z,16.58
2022-11-08T02:42:20.837Z,13.63
2022-11-08T02:44:48.571Z,16.25
2022-11-08T02:47:16.984Z,11.73
2022-11-08T02:49:44.654Z,13.75
2022-11-08T02:52:12.085Z,13.95
2022-11-08T02:54:39.902Z,13.88
2022-11-08T02:57:07.380Z,12.73
2022-11-08T02:59:36.730Z,12.30
2022-11-08T03:02:04.115Z,13.60
2022-11-08T03:04:31.575Z,12.23
2022-11-08T03:06:58.802Z,13.27
2022-11-08T03:09:27.331Z,14.00
2022-11-08T03:11:54.963Z,17.23
2022-11-08T03:14:47.098Z,11.90
2022-11-08T03:17:14.379Z,11.35
2022-11-08T03:19:41.627Z,12.68
2022-11-08T03:22:08.825Z,11.93
2022-11-08T03:24:36.344Z,12.65
2022-11-08T03:27:03.736Z,11.15
2022-11-08T03:29:30.970Z,13.85
2022-11-08T03:31:58.668Z,12.55
2022-11-08T03:34:26.375Z,13.30
2022-11-08T03:36:53.686Z,12.15
2022-11-08T03:39:21.268Z,14.27
2022-11-08T03:41:49.245Z,12.73
2022-11-08T03:44:16.601Z,12.30
2022-11-08T03:46:44.064Z,12.30
2022-11-08T03:49:11.526Z,12.00
2022-11-08T03:51:38.715Z,12.15
2022-11-08T03:54:05.925Z,12.75
2022-11-08T03:56:33.022Z,12.48
2022-11-08T03:59:00.226Z,14.65
2022-11-08T04:01:27.980Z,10.77
2022-11-08T04:03:55.613Z,11.90
2022-11-08T04:06:23.074Z,11.32
2022-11-08T04:08:50.555Z,11.35
2022-11-08T04:11:36.842Z,10.23
2022-11-08T04:14:23.067Z,15.02
2022-11-08T04:16:50.423Z,13.35
2022-11-08T04:19:36.509Z,12.10
2022-11-08T04:22:04.729Z,11.45
2022-11-08T04:24:32.111Z,13.63
2022-11-08T04:26:59.777Z,11.65
2022-11-08T04:29:27.127Z,11.20
2022-11-08T04:31:54.488Z,13.55
2022-11-08T04:34:22.184Z,13.57
2022-11-08T04:36:49.646Z,16.33
2022-11-08T04:39:17.642Z,12.05
2022-11-08T04:41:45.197Z,14.35
2022-11-08T04:44:12.580Z,12.32
2022-11-08T04:46:43.627Z,15.25
2022-11-08T04:49:11.490Z,15.88
2022-11-08T04:51:38.787Z,14.88
2022-11-08T04:54:07.646Z,14.68
2022-11-08T04:56:35.194Z,12.18
2022-11-08T04:59:02.398Z,16.83
2022-11-08T05:01:31.876Z,12.27
2022-11-08T05:03:59.459Z,12.25
2022-11-08T05:06:31.678Z,14.35
2022-11-08T05:09:00.518Z,14.00
2022-11-08T05:11:30.641Z,14.68
2022-11-08T05:13:58.454Z,13.60
2022-11-08T05:16:32.339Z,13.73
2022-11-08T05:19:00.207Z,16.23
2022-11-08T05:21:46.227Z,13.70
2022-11-08T05:24:17.212Z,15.25
2022-11-08T05:26:48.617Z,14.23
2022-11-08T05:29:17.397Z,12.57
2022-11-08T05:31:45.272Z,15.35
2022-11-08T05:34:12.559Z,14.02
2022-11-08T05:36:39.710Z,16.25
2022-11-08T05:39:10.189Z,17.20
2022-11-08T05:41:38.511Z,17.45
2022-11-08T05:44:06.164Z,16.92
2022-11-08T05:46:37.006Z,19.00
2022-11-08T05:49:05.054Z,19.58
2022-11-08T05:51:32.804Z,17.75
2022-11-08T05:54:00.304Z,19.65
2022-11-08T05:56:28.263Z,19.65
2022-11-08T05:58:56.316Z,19.27
2022-11-08T06:01:23.561Z,20.08
2022-11-08T06:03:50.880Z,18.90
2022-11-08T06:06:21.654Z,23.77
2022-11-08T06:08:50.917Z,20.27
2022-11-08T06:11:24.649Z,17.67
2022-11-08T06:13:54.719Z,26.65
2022-11-08T06:16:24.225Z,17.38
2022-11-08T06:18:51.751Z,20.52
2022-11-08T06:21:21.305Z,20.80
2022-11-08T06:23:53.500Z,23.48
2022-11-08T06:26:23.849Z,21.02
2022-11-08T06:28:52.450Z,17.63
2022-11-08T06:31:19.977Z,23.90
2022-11-08T06:33:47.725Z,24.42
2022-11-08T06:36:15.079Z,19.90
2022-11-08T06:38:42.443Z,17.20
2022-11-08T06:41:20.313Z,18.92
2022-11-08T06:43:49.078Z,20.45
2022-11-08T06:46:16.765Z,21.80
2022-11-08T06:48:44.755Z,19.88
2022-11-08T06:51:12.971Z,17.30
2022-11-08T06:53:40.542Z,22.85
2022-11-08T06:56:08.479Z,21.77
2022-11-08T06:58:36.268Z,21.40
2022-11-08T07:01:06.629Z,17.80
2022-11-08T07:03:34.922Z,23.10
2022-11-08T07:06:07.137Z,17.80
2022-11-08T07:08:35.572Z,21.73
2022-11-08T07:11:28.291Z,18.60
2022-11-08T07:13:55.514Z,20.90
2022-11-08T07:16:22.724Z,17.88
2022-11-08T07:18:51.421Z,14.27
2022-11-08T07:21:18.836Z,17.58
2022-11-08T07:23:46.145Z,22.48
2022-11-08T07:26:13.938Z,16.13
2022-11-08T07:28:42.262Z,15.90
2022-11-08T07:31:12.496Z,19.95
2022-11-08T07:33:43.090Z,14.95
2022-11-08T07:36:11.674Z,16.75
2022-11-08T07:38:39.612Z,20.52
2022-11-08T07:41:09.984Z,16.30
2022-11-08T07:43:37.602Z,15.30
2022-11-08T07:46:11.400Z,13.45
2022-11-08T07:48:38.812Z,18.23
2022-11-08T07:51:08.466Z,17.73
2022-11-08T07:53:35.897Z,13.95
2022-11-08T07:56:03.442Z,14.40
2022-11-08T07:58:30.829Z,10.88
2022-11-08T08:01:03.411Z,11.13
2022-11-08T08:03:31.753Z,12.88
2022-11-08T08:06:01.519Z,13.90
2022-11-08T08:08:30.050Z,12.80
2022-11-08T08:11:00.725Z,16.17
2022-11-08T08:13:31.984Z,15.35
2022-11-08T08:16:01.538Z,12.20
2022-11-08T08:18:30.789Z,13.55
2022-11-08T08:20:59.010Z,12.32
2022-11-08T08:23:26.394Z,14.13
2022-11-08T08:25:54.414Z,11.25
2022-11-08T08:28:22.123Z,11.63
2022-11-08T08:30:49.659Z,9.57
2022-11-08T08:33:34.701Z,9.82
2022-11-08T08:36:02.713Z,12.20
2022-11-08T08:38:36.795Z,9.20
2022-11-08T08:41:07.474Z,9.93
2022-11-08T08:43:34.709Z,10.02
2022-11-08T08:46:05.836Z,7.03
2022-11-08T08:48:33.594Z,8.43
2022-11-08T08:51:02.125Z,8.65
2022-11-08T08:53:30.090Z,8.57
2022-11-08T08:55:58.441Z,11.32
2022-11-08T08:58:26.117Z,6.63
2022-11-08T09:03:40.737Z,7.90
2022-11-08T09:06:08.293Z,8.00
2022-11-08T09:08:37.037Z,7.50
2022-11-08T09:11:04.756Z,7.03
2022-11-08T09:13:32.668Z,7.80
2022-11-08T09:16:02.827Z,9.98
2022-11-08T09:18:31.621Z,7.35
2022-11-08T09:21:00.541Z,9.52
2022-11-08T09:23:27.966Z,7.75
2022-11-08T09:26:02.565Z,10.52
2022-11-08T09:28:34.176Z,9.00
2022-11-08T09:31:06.419Z,7.65
2022-11-08T09:33:41.154Z,6.55
2022-11-08T09:36:13.926Z,8.15
2022-11-08T09:38:42.067Z,8.43
2022-11-08T09:41:59.386Z,7.60
2022-11-08T09:45:12.261Z,7.20
2022-11-08T09:47:52.038Z,7.50
2022-11-08T09:50:45.103Z,6.57
2022-11-08T09:53:57.623Z,7.63
2022-11-08T09:56:40.034Z,6.22
2022-11-08T09:59:43.464Z,5.57
2022-11-08T10:02:23.682Z,7.15
2022-11-08T10:05:06.008Z,9.50
2022-11-08T10:08:04.333Z,5.43
2022-11-08T10:11:05.926Z,9.23
2022-11-08T10:13:58.297Z,11.23
2022-11-08T10:17:02.017Z,7.75
2022-11-08T10:20:10.573Z,7.70
2022-11-08T10:23:18.292Z,6.15
2022-11-08T10:26:18.033Z,7.25
2022-11-08T10:29:08.898Z,7.85
2022-11-08T10:31:41.285Z,8.02
2022-11-08T10:34:27.228Z,8.90
2022-11-08T10:37:04.295Z,8.85
2022-11-08T10:39:55.683Z,12.23
2022-11-08T10:42:45.604Z,10.70
2022-11-08T10:45:13.341Z,10.95
2022-11-08T10:47:45.140Z,8.77
2022-11-08T10:50:26.223Z,10.02
2022-11-08T10:53:08.454Z,10.90
2022-11-08T10:55:49.007Z,8.93
2022-11-08T10:58:41.440Z,8.43
2022-11-08T11:01:25.608Z,12.73
2022-11-08T11:03:54.108Z,10.57
2022-11-08T11:06:33.438Z,8.40
2022-11-08T11:09:21.688Z,6.72
2022-11-08T11:12:15.366Z,8.18
2022-11-08T11:14:58.478Z,7.60
2022-11-08T11:17:37.181Z,7.53
2022-11-08T11:20:23.996Z,6.80
2022-11-08T11:22:53.634Z,9.80
2022-11-08T11:25:24.296Z,9.07
2022-11-08T11:27:59.664Z,8.07
2022-11-08T11:30:34.713Z,8.07
2022-11-08T11:33:25.861Z,7.63
2022-11-08T11:36:12.190Z,8.48
2022-11-08T11:38:56.273Z,8.50
2022-11-08T11:41:56.067Z,6.30
2022-11-08T11:44:35.951Z,7.40
2022-11-08T11:47:16.469Z,12.00
2022-11-08T11:49:45.759Z,7.53
2022-11-08T11:52:19.705Z,7.22
2022-11-08T11:54:49.819Z,7.07
2022-11-08T11:58:13.195Z,7.45
2022-11-08T12:01:18.705Z,5.32
2022-11-08T12:04:06.830Z,5.68
2022-11-08T12:06:42.841Z,6.85
2022-11-08T12:09:42.435Z,6.68
2022-11-08T12:12:31.587Z,6.03
2022-11-08T12:15:34.982Z,8.43
2022-11-08T12:18:52.625Z,8.73
2022-11-08T12:22:01.392Z,6.57
2022-11-08T12:25:13.564Z,7.30
2022-11-08T12:28:06.740Z,8.52
2022-11-08T12:30:58.740Z,9.20
2022-11-08T12:33:56.731Z,11.65
2022-11-08T12:36:52.274Z,10.77
2022-11-08T12:39:35.980Z,7.60
2022-11-08T12:42:44.692Z,8.00
2022-11-08T12:45:55.252Z,8.25
2022-11-08T12:49:24.665Z,9.73
2022-11-08T12:52:19.515Z,8.07
2022-11-08T12:55:03.448Z,7.47
2022-11-08T12:57:32.196Z,8.57
2022-11-08T13:00:13.109Z,7.82
2022-11-08T13:02:44.761Z,9.48
2022-11-08T13:05:58.649Z,7.22
2022-11-08T13:08:59.128Z,9.70
2022-11-08T13:11:45.685Z,9.63
2022-11-08T13:14:19.875Z,9.45
2022-11-08T13:17:24.901Z,8.73
2022-11-08T13:20:06.160Z,10.55
2022-11-08T13:22:45.838Z,8.40
2022-11-08T13:25:23.565Z,6.78
2022-11-08T13:27:51.154Z,7.53
2022-11-08T13:30:18.519Z,7.50
2022-11-08T13:33:15.148Z,6.22
2022-11-08T13:35:51.017Z,5.10
2022-11-08T13:39:03.952Z,6.90
2022-11-08T13:41:31.789Z,10.23
2022-11-08T13:44:00.988Z,5.50
2022-11-08T13:46:29.389Z,11.18
2022-11-08T13:49:05.691Z,7.03
2022-11-08T13:51:47.102Z,7.63
2022-11-08T13:54:31.631Z,8.48
2022-11-08T13:58:03.040Z,6.03
2022-11-08T14:00:47.367Z,5.07
2022-11-08T14:03:48.478Z,8.20
2022-11-08T14:07:07.337Z,7.68
2022-11-08T14:10:28.688Z,9.68
2022-11-08T14:13:53.216Z,8.43
2022-11-08T14:16:48.500Z,6.53
2022-11-08T14:19:31.968Z,11.77
2022-11-08T14:22:05.333Z,9.55
2022-11-08T14:24:40.185Z,11.68
2022-11-08T14:27:12.239Z,15.00
2022-11-08T14:29:41.760Z,10.10
2022-11-08T14:32:24.652Z,7.60
2022-11-08T14:34:51.962Z,9.73
2022-11-08T14:37:27.667Z,8.13
2022-11-08T14:39:55.003Z,8.68
2022-11-08T14:42:26.324Z,8.38
2022-11-08T14:48:03.379Z,11.38
2022-11-08T14:50:35.421Z,8.88
2022-11-08T14:53:47.175Z,7.25
2022-11-08T14:56:27.783Z,8.52
2022-11-08T14:58:56.266Z,13.43
2022-11-08T15:01:26.958Z,7.88
2022-11-08T15:04:13.598Z,10.57
2022-11-08T15:06:47.020Z,9.35
2022-11-08T15:09:35.937Z,8.07
2022-11-08T15:12:14.218Z,8.48
2022-11-08T15:15:00.813Z,11.35
2022-11-08T15:17:39.615Z,9.10
2022-11-08T15:20:21.803Z,12.55
2022-11-08T15:22:52.945Z,9.30
2022-11-08T15:25:38.543Z,7.97
2022-11-08T15:28:26.087Z,8.57
2022-11-08T15:31:03.103Z,10.45
2022-11-08T15:33:40.804Z,9.23
2022-11-08T15:36:16.562Z,11.52
2022-11-08T15:38:50.551Z,9.32
2022-11-08T15:41:39.614Z,10.77
2022-11-08T15:44:24.726Z,9.52
2022-11-08T15:46:56.100Z,7.95
2022-11-08T15:49:28.711Z,8.95
2022-11-08T15:52:01.110Z,7.00
2022-11-08T15:54:28.738Z,9.77
2022-11-08T15:56:57.523Z,12.20
2022-11-08T15:59:30.190Z,15.17
2022-11-08T16:02:02.993Z,13.77
2022-11-08T16:04:30.865Z,12.02
2022-11-08T16:06:58.475Z,16.92
2022-11-08T16:09:26.591Z,11.50
2022-11-08T16:11:54.561Z,13.65
2022-11-08T16:14:25.125Z,11.13
2022-11-08T16:16:52.856Z,10.85
2022-11-08T16:19:25.005Z,11.73
2022-11-08T16:21:52.955Z,9.48
2022-11-08T16:24:20.294Z,9.45
2022-11-08T16:26:49.431Z,9.85
2022-11-08T16:29:24.187Z,8.85
2022-11-08T16:31:52.240Z,11.48
2022-11-08T16:34:20.495Z,10.18
2022-11-08T16:36:52.145Z,8.88
2022-11-08T16:39:26.165Z,11.10
2022-11-08T16:41:53.442Z,14.57
2022-11-08T16:44:20.738Z,11.73
2022-11-08T16:47:18.599Z,10.95
2022-11-08T16:49:51.437Z,15.63
2022-11-08T16:52:19.587Z,28.65
2022-11-08T16:54:47.892Z,17.27
2022-11-08T16:57:45.353Z,15.48
2022-11-08T17:00:04.952Z,15.38
2022-11-08T17:02:36.019Z,16.73
2022-11-08T17:05:04.197Z,17.65
2022-11-08T17:07:31.988Z,16.75
2022-11-08T17:10:00.050Z,15.82
2022-11-08T17:12:27.825Z,12.35
2022-11-08T17:14:56.199Z,14.20
2022-11-08T17:17:25.901Z,11.85
2022-11-08T17:19:54.867Z,13.40
2022-11-08T17:22:22.136Z,15.52
2022-11-08T17:24:49.530Z,11.57
2022-11-08T17:27:19.984Z,10.95
2022-11-08T17:29:47.439Z,12.90
2022-11-08T17:32:14.711Z,14.98
2022-11-08T17:34:42.039Z,10.93
2022-11-08T17:37:09.392Z,11.43
2022-11-08T17:39:36.793Z,12.18
2022-11-08T17:42:05.267Z,18.08
2022-11-08T17:44:33.483Z,13.68
2022-11-08T17:47:01.323Z,16.35
2022-11-08T17:49:29.684Z,17.85
2022-11-08T17:51:57.701Z,14.75
2022-11-08T17:54:25.311Z,12.35
2022-11-08T17:56:52.956Z,16.10
2022-11-08T17:59:21.289Z,15.20
2022-11-08T18:01:48.741Z,16.95
2022-11-08T18:04:16.586Z,18.10
2022-11-08T18:06:44.530Z,14.23
2022-11-08T18:09:12.871Z,14.13
2022-11-08T18:11:47.536Z,10.57
2022-11-08T18:14:28.056Z,11.43
2022-11-08T18:16:57.026Z,12.27
2022-11-08T18:19:24.762Z,26.33
2022-11-08T18:21:52.005Z,19.15
2022-11-08T18:24:19.500Z,15.20
2022-11-08T18:26:47.461Z,16.13
2022-11-08T18:29:15.933Z,12.85
2022-11-08T18:31:43.513Z,12.40
2022-11-08T18:34:10.882Z,14.10
2022-11-08T18:36:38.897Z,14.00
2022-11-08T18:39:06.427Z,12.95
2022-11-08T18:41:34.350Z,12.13
2022-11-08T18:44:02.992Z,14.38
2022-11-08T18:46:34.263Z,11.60
2022-11-08T18:49:06.260Z,13.90
2022-11-08T18:51:34.685Z,13.93
2022-11-08T18:54:02.407Z,12.40
2022-11-08T18:56:30.005Z,17.15
2022-11-08T18:58:57.400Z,13.55
2022-11-08T19:01:25.074Z,13.27
2022-11-08T19:03:52.458Z,13.30
2022-11-08T19:06:19.918Z,11.10
2022-11-08T19:08:48.071Z,12.32
2022-11-08T19:11:20.459Z,14.43
2022-11-08T19:13:50.630Z,13.75
2022-11-08T19:16:20.755Z,16.05
2022-11-08T19:18:51.845Z,16.02
2022-11-08T19:21:24.222Z,14.23
2022-11-08T19:23:58.618Z,14.95
2022-11-08T19:26:29.525Z,14.20
2022-11-08T19:28:58.507Z,15.52
2022-11-08T19:31:26.543Z,17.70
2022-11-08T19:33:55.791Z,36.42
2022-11-08T19:36:28.288Z,20.23
2022-11-08T19:38:58.533Z,32.85
2022-11-08T19:41:29.061Z,25.42
2022-11-08T19:43:59.335Z,27.27
2022-11-08T19:46:30.424Z,19.08
2022-11-08T19:49:24.295Z,19.88
2022-11-08T19:51:51.831Z,17.80
2022-11-08T19:54:19.302Z,17.25
2022-11-08T19:57:04.591Z,18.05
2022-11-08T19:59:36.187Z,17.17
2022-11-08T20:02:03.851Z,20.58
2022-11-08T20:04:31.499Z,18.27
2022-11-08T20:06:59.181Z,17.15
2022-11-08T20:09:30.582Z,17.15
2022-11-08T20:11:58.463Z,16.40
2022-11-08T20:14:26.298Z,16.13
2022-11-08T20:16:59.847Z,16.08
2022-11-08T20:19:27.392Z,16.92
2022-11-08T20:21:56.961Z,16.02
2022-11-08T20:24:24.532Z,13.88
2022-11-08T20:26:52.150Z,15.63
2022-11-08T20:29:19.507Z,16.60
2022-11-08T20:31:50.318Z,15.88
2022-11-08T20:34:18.901Z,15.73
2022-11-08T20:36:46.330Z,15.77
2022-11-08T20:39:15.386Z,13.27
2022-11-08T20:41:43.071Z,15.80
2022-11-08T20:44:11.858Z,13.00
2022-11-08T20:46:39.600Z,11.68
2022-11-08T20:49:08.417Z,12.35
2022-11-08T20:51:39.138Z,14.10
2022-11-08T20:54:09.293Z,12.05
2022-11-08T20:56:37.053Z,15.55
2022-11-08T20:59:04.672Z,11.57
2022-11-08T21:01:36.091Z,15.38
2022-11-08T21:04:03.852Z,14.25
2022-11-08T21:06:36.020Z,15.80
2022-11-08T21:11:54.449Z,15.98
2022-11-08T21:14:23.807Z,18.20
2022-11-08T21:17:20.047Z,15.23
2022-11-08T21:19:39.907Z,20.35
2022-11-08T21:22:16.418Z,20.30
2022-11-08T21:24:47.780Z,16.35
2022-11-08T21:27:18.800Z,18.73
2022-11-08T21:29:46.548Z,16.20
2022-11-08T21:32:14.458Z,18.67
2022-11-08T21:34:46.070Z,13.30
2022-11-08T21:37:18.050Z,17.13
2022-11-08T21:39:45.512Z,16.58
2022-11-08T21:42:13.870Z,18.77
2022-11-08T21:44:41.508Z,19.63
2022-11-08T21:47:09.960Z,20.95
2022-11-08T21:49:40.175Z,18.90
2022-11-08T21:52:07.853Z,16.08
2022-11-08T21:55:00.566Z,20.45
2022-11-08T21:57:28.636Z,19.23
2022-11-08T21:59:56.064Z,17.60
2022-11-08T22:02:23.614Z,19.60
2022-11-08T22:04:50.875Z,20.63
2022-11-08T22:07:18.668Z,16.23
2022-11-08T22:09:53.458Z,19.35
2022-11-08T22:12:21.343Z,17.02
2022-11-08T22:14:50.956Z,18.23
2022-11-08T22:17:21.494Z,16.90
2022-11-08T22:19:49.824Z,16.10
2022-11-08T22:22:17.646Z,17.73
2022-11-08T22:24:45.771Z,18.92
2022-11-08T22:27:14.135Z,17.50
2022-11-08T22:29:41.813Z,19.00
2022-11-08T22:32:09.372Z,21.05
2022-11-08T22:34:36.735Z,22.33
2022-11-08T22:37:04.104Z,19.23
2022-11-08T22:39:31.598Z,19.60
2022-11-08T22:42:05.819Z,17.63
2022-11-08T22:44:36.497Z,20.95
2022-11-08T22:47:04.773Z,18.65
2022-11-08T22:49:37.061Z,20.80
2022-11-08T22:52:06.890Z,18.02
2022-11-08T22:54:34.933Z,16.63
2022-11-08T22:57:09.141Z,19.00
2022-11-08T22:59:36.463Z,15.10
2022-11-08T23:02:03.889Z,17.05
2022-11-08T23:04:31.402Z,17.80
2022-11-08T23:07:02.070Z,15.38
2022-11-08T23:09:29.808Z,17.02
2022-11-08T23:12:20.537Z,18.05
2022-11-08T23:15:06.501Z,14.90
2022-11-08T23:17:34.064Z,17.35
2022-11-08T23:20:26.099Z,14.73
2022-11-08T23:23:12.487Z,15.35
2022-11-08T23:25:40.649Z,14.95
2022-11-08T23:28:27.116Z,15.43
2022-11-08T23:31:15.974Z,15.38
2022-11-08T23:33:46.182Z,12.45
2022-11-08T23:36:14.632Z,15.60
2022-11-08T23:38:47.093Z,13.02
2022-11-08T23:41:33.790Z,14.30
2022-11-08T23:44:19.694Z,20.33
2022-11-08T23:46:47.053Z,15.73
2022-11-08T23:49:14.363Z,11.50
2022-11-08T23:52:12.214Z,13.85
2022-11-08T23:55:08.602Z,13.43
2022-11-08T23:58:01.195Z,13.88
